sensor_id;sensor_type;location;lat;lon;timestamp;P1;durP1;ratioP1;P2;durP2;ratioP2
3755;SDS011;1893;52.526;13.360;2022-12-17T00:00:21;65.85;;;25.98;;
3755;SDS011;1893;52.526;13.360;2022-12-17T00:03:20;51.38;;;22.30;;
3755;SDS011;1893;52.526;13.360;2022-12-17T00:06:04;61.25;;;24.48;;
3755;SDS011;1893;52.526;13.360;2022-12-17T00:08:48;55.92;;;21.85;;
3755;SDS011;1893;52.526;13.360;2022-12-17T00:11:32;60.38;;;24.27;;
3755;SDS011;1893;52.526;13.360;2022-12-17T00:14:16;58.25;;;25.10;;
3755;SDS011;1893;52.526;13.360;2022-12-17T00:17:00;72.18;;;27.23;;
3755;SDS011;1893;52.526;13.360;2022-12-17T00:19:44;62.05;;;25.85;;
3755;SDS011;1893;52.526;13.360;2022-12-17T00:22:29;70.72;;;25.85;;
3755;SDS011;1893;52.526;13.360;2022-12-17T00:25:23;62.75;;;24.98;;
3755;SDS011;1893;52.526;13.360;2022-12-17T00:28:08;74.47;;;28.27;;
3755;SDS011;1893;52.526;13.360;2022-12-17T00:30:53;77.90;;;29.85;;
3755;SDS011;1893;52.526;13.360;2022-12-17T00:33:38;92.47;;;31.20;;
3755;SDS011;1893;52.526;13.360;2022-12-17T00:36:22;84.85;;;29.27;;
3755;SDS011;1893;52.526;13.360;2022-12-17T00:39:06;100.43;;;33.55;;
3755;SDS011;1893;52.526;13.360;2022-12-17T00:41:50;85.18;;;32.25;;
3755;SDS011;1893;52.526;13.360;2022-12-17T00:44:34;81.35;;;31.05;;
3755;SDS011;1893;52.526;13.360;2022-12-17T00:47:18;89.72;;;30.35;;
3755;SDS011;1893;52.526;13.360;2022-12-17T00:50:02;65.82;;;24.55;;
3755;SDS011;1893;52.526;13.360;2022-12-17T00:52:46;70.00;;;25.23;;
3755;SDS011;1893;52.526;13.360;2022-12-17T00:55:30;66.30;;;26.58;;
3755;SDS011;1893;52.526;13.360;2022-12-17T00:58:14;81.35;;;26.45;;
3755;SDS011;1893;52.526;13.360;2022-12-17T01:00:59;87.32;;;28.85;;
3755;SDS011;1893;52.526;13.360;2022-12-17T01:03:44;87.07;;;29.02;;
3755;SDS011;1893;52.526;13.360;2022-12-17T01:06:28;89.18;;;27.73;;
3755;SDS011;1893;52.526;13.360;2022-12-17T01:09:12;102.53;;;30.05;;
3755;SDS011;1893;52.526;13.360;2022-12-17T01:11:56;87.13;;;27.65;;
3755;SDS011;1893;52.526;13.360;2022-12-17T01:14:41;95.68;;;29.63;;
3755;SDS011;1893;52.526;13.360;2022-12-17T01:17:25;97.57;;;30.98;;
3755;SDS011;1893;52.526;13.360;2022-12-17T01:20:09;92.57;;;29.10;;
3755;SDS011;1893;52.526;13.360;2022-12-17T01:22:53;78.40;;;27.92;;
3755;SDS011;1893;52.526;13.360;2022-12-17T01:25:37;100.80;;;31.27;;
3755;SDS011;1893;52.526;13.360;2022-12-17T01:28:22;87.00;;;29.85;;
3755;SDS011;1893;52.526;13.360;2022-12-17T01:31:07;86.78;;;32.38;;
3755;SDS011;1893;52.526;13.360;2022-12-17T01:33:52;86.43;;;30.00;;
3755;SDS011;1893;52.526;13.360;2022-12-17T01:36:36;96.30;;;31.77;;
3755;SDS011;1893;52.526;13.360;2022-12-17T01:39:20;83.47;;;26.92;;
3755;SDS011;1893;52.526;13.360;2022-12-17T01:42:04;76.18;;;25.35;;
3755;SDS011;1893;52.526;13.360;2022-12-17T01:44:52;81.13;;;28.92;;
3755;SDS011;1893;52.526;13.360;2022-12-17T01:47:42;74.20;;;26.05;;
3755;SDS011;1893;52.526;13.360;2022-12-17T01:50:31;89.50;;;27.65;;
3755;SDS011;1893;52.526;13.360;2022-12-17T01:53:18;74.40;;;25.95;;
3755;SDS011;1893;52.526;13.360;2022-12-17T01:56:07;66.03;;;23.60;;
3755;SDS011;1893;52.526;13.360;2022-12-17T01:58:52;76.22;;;26.80;;
3755;SDS011;1893;52.526;13.360;2022-12-17T02:01:36;82.20;;;25.65;;
3755;SDS011;1893;52.526;13.360;2022-12-17T02:04:21;69.95;;;26.52;;
3755;SDS011;1893;52.526;13.360;2022-12-17T02:12:54;78.13;;;26.58;;
3755;SDS011;1893;52.526;13.360;2022-12-17T02:15:43;77.38;;;24.80;;
3755;SDS011;1893;52.526;13.360;2022-12-17T02:18:36;68.50;;;23.00;;
3755;SDS011;1893;52.526;13.360;2022-12-17T02:21:25;66.47;;;24.10;;
3755;SDS011;1893;52.526;13.360;2022-12-17T02:24:34;77.70;;;25.67;;
3755;SDS011;1893;52.526;13.360;2022-12-17T02:27:26;68.88;;;24.60;;
3755;SDS011;1893;52.526;13.360;2022-12-17T02:30:11;65.95;;;23.77;;
3755;SDS011;1893;52.526;13.360;2022-12-17T02:32:56;78.70;;;23.95;;
3755;SDS011;1893;52.526;13.360;2022-12-17T02:35:43;65.25;;;21.33;;
3755;SDS011;1893;52.526;13.360;2022-12-17T02:38:32;63.05;;;21.60;;
3755;SDS011;1893;52.526;13.360;2022-12-17T02:44:17;61.60;;;23.63;;
3755;SDS011;1893;52.526;13.360;2022-12-17T02:47:05;63.80;;;22.67;;
3755;SDS011;1893;52.526;13.360;2022-12-17T02:49:51;64.63;;;21.73;;
3755;SDS011;1893;52.526;13.360;2022-12-17T02:52:45;57.08;;;20.38;;
3755;SDS011;1893;52.526;13.360;2022-12-17T02:55:31;58.13;;;19.65;;
3755;SDS011;1893;52.526;13.360;2022-12-17T02:58:17;46.22;;;20.30;;
3755;SDS011;1893;52.526;13.360;2022-12-17T03:01:01;56.13;;;20.00;;
3755;SDS011;1893;52.526;13.360;2022-12-17T03:03:45;50.60;;;18.02;;
3755;SDS011;1893;52.526;13.360;2022-12-17T03:06:29;55.05;;;19.42;;
3755;SDS011;1893;52.526;13.360;2022-12-17T03:09:13;52.08;;;19.13;;
3755;SDS011;1893;52.526;13.360;2022-12-17T03:11:57;53.65;;;20.38;;
3755;SDS011;1893;52.526;13.360;2022-12-17T03:14:41;61.38;;;22.42;;
3755;SDS011;1893;52.526;13.360;2022-12-17T03:17:25;49.35;;;19.92;;
3755;SDS011;1893;52.526;13.360;2022-12-17T03:20:11;57.22;;;22.80;;
3755;SDS011;1893;52.526;13.360;2022-12-17T03:23:05;58.22;;;20.33;;
3755;SDS011;1893;52.526;13.360;2022-12-17T03:25:51;47.35;;;18.15;;
3755;SDS011;1893;52.526;13.360;2022-12-17T03:28:36;48.42;;;17.88;;
3755;SDS011;1893;52.526;13.360;2022-12-17T03:31:20;53.45;;;20.00;;
3755;SDS011;1893;52.526;13.360;2022-12-17T03:34:04;48.20;;;21.10;;
3755;SDS011;1893;52.526;13.360;2022-12-17T03:36:47;52.28;;;21.42;;
3755;SDS011;1893;52.526;13.360;2022-12-17T03:39:32;52.33;;;21.20;;
3755;SDS011;1893;52.526;13.360;2022-12-17T03:42:16;50.45;;;18.15;;
3755;SDS011;1893;52.526;13.360;2022-12-17T03:45:00;52.55;;;19.85;;
3755;SDS011;1893;52.526;13.360;2022-12-17T03:47:44;61.95;;;21.45;;
3755;SDS011;1893;52.526;13.360;2022-12-17T03:50:28;52.10;;;20.67;;
3755;SDS011;1893;52.526;13.360;2022-12-17T03:53:12;53.47;;;19.88;;
3755;SDS011;1893;52.526;13.360;2022-12-17T03:55:56;57.53;;;19.95;;
3755;SDS011;1893;52.526;13.360;2022-12-17T03:58:40;65.30;;;23.17;;
3755;SDS011;1893;52.526;13.360;2022-12-17T04:01:24;53.58;;;20.48;;
3755;SDS011;1893;52.526;13.360;2022-12-17T04:04:08;58.15;;;22.85;;
3755;SDS011;1893;52.526;13.360;2022-12-17T04:06:52;61.38;;;21.90;;
3755;SDS011;1893;52.526;13.360;2022-12-17T04:09:36;75.65;;;21.35;;
3755;SDS011;1893;52.526;13.360;2022-12-17T04:12:20;58.35;;;22.20;;
3755;SDS011;1893;52.526;13.360;2022-12-17T04:15:15;86.85;;;25.25;;
3755;SDS011;1893;52.526;13.360;2022-12-17T04:17:59;60.47;;;21.70;;
3755;SDS011;1893;52.526;13.360;2022-12-17T04:20:43;71.75;;;22.75;;
3755;SDS011;1893;52.526;13.360;2022-12-17T04:23:27;67.15;;;22.00;;
3755;SDS011;1893;52.526;13.360;2022-12-17T04:26:11;65.38;;;24.27;;
3755;SDS011;1893;52.526;13.360;2022-12-17T04:28:55;81.13;;;22.08;;
3755;SDS011;1893;52.526;13.360;2022-12-17T04:31:39;78.45;;;24.90;;
3755;SDS011;1893;52.526;13.360;2022-12-17T04:34:23;61.83;;;22.67;;
3755;SDS011;1893;52.526;13.360;2022-12-17T04:37:07;74.55;;;25.50;;
3755;SDS011;1893;52.526;13.360;2022-12-17T04:39:51;72.85;;;22.63;;
3755;SDS011;1893;52.526;13.360;2022-12-17T04:42:35;67.15;;;22.85;;
3755;SDS011;1893;52.526;13.360;2022-12-17T04:45:19;69.20;;;21.58;;
3755;SDS011;1893;52.526;13.360;2022-12-17T04:48:04;69.68;;;22.15;;
3755;SDS011;1893;52.526;13.360;2022-12-17T04:50:49;63.60;;;20.20;;
3755;SDS011;1893;52.526;13.360;2022-12-17T04:53:34;74.63;;;23.83;;
3755;SDS011;1893;52.526;13.360;2022-12-17T04:56:18;62.88;;;23.27;;
3755;SDS011;1893;52.526;13.360;2022-12-17T04:59:02;75.05;;;22.23;;
3755;SDS011;1893;52.526;13.360;2022-12-17T05:01:47;58.83;;;19.10;;
3755;SDS011;1893;52.526;13.360;2022-12-17T05:04:34;64.65;;;23.10;;
3755;SDS011;1893;52.526;13.360;2022-12-17T05:07:18;53.03;;;19.60;;
3755;SDS011;1893;52.526;13.360;2022-12-17T05:10:03;51.17;;;19.48;;
3755;SDS011;1893;52.526;13.360;2022-12-17T05:12:54;69.47;;;21.25;;
3755;SDS011;1893;52.526;13.360;2022-12-17T05:15:40;52.60;;;21.30;;
3755;SDS011;1893;52.526;13.360;2022-12-17T05:18:24;55.28;;;20.15;;
3755;SDS011;1893;52.526;13.360;2022-12-17T05:21:08;56.65;;;21.48;;
3755;SDS011;1893;52.526;13.360;2022-12-17T05:23:52;58.63;;;22.52;;
3755;SDS011;1893;52.526;13.360;2022-12-17T05:26:36;48.83;;;19.23;;
3755;SDS011;1893;52.526;13.360;2022-12-17T05:29:20;61.40;;;22.85;;
3755;SDS011;1893;52.526;13.360;2022-12-17T05:32:04;55.22;;;21.63;;
3755;SDS011;1893;52.526;13.360;2022-12-17T05:34:48;61.85;;;21.38;;
3755;SDS011;1893;52.526;13.360;2022-12-17T05:37:32;59.95;;;24.60;;
3755;SDS011;1893;52.526;13.360;2022-12-17T05:40:16;59.47;;;22.52;;
3755;SDS011;1893;52.526;13.360;2022-12-17T05:43:02;52.22;;;20.00;;
3755;SDS011;1893;52.526;13.360;2022-12-17T05:45:48;52.97;;;21.17;;
3755;SDS011;1893;52.526;13.360;2022-12-17T05:48:32;54.85;;;18.65;;
3755;SDS011;1893;52.526;13.360;2022-12-17T05:51:17;42.47;;;18.02;;
3755;SDS011;1893;52.526;13.360;2022-12-17T05:54:02;55.90;;;20.08;;
3755;SDS011;1893;52.526;13.360;2022-12-17T05:56:46;46.03;;;19.90;;
3755;SDS011;1893;52.526;13.360;2022-12-17T05:59:30;49.92;;;19.33;;
3755;SDS011;1893;52.526;13.360;2022-12-17T06:02:14;52.88;;;20.80;;
3755;SDS011;1893;52.526;13.360;2022-12-17T06:04:59;46.92;;;19.10;;
3755;SDS011;1893;52.526;13.360;2022-12-17T06:07:43;50.25;;;19.25;;
3755;SDS011;1893;52.526;13.360;2022-12-17T06:10:27;43.38;;;18.33;;
3755;SDS011;1893;52.526;13.360;2022-12-17T06:13:11;46.65;;;18.23;;
3755;SDS011;1893;52.526;13.360;2022-12-17T06:15:55;48.25;;;18.58;;
3755;SDS011;1893;52.526;13.360;2022-12-17T06:18:39;49.88;;;19.65;;
3755;SDS011;1893;52.526;13.360;2022-12-17T06:21:23;53.42;;;19.40;;
3755;SDS011;1893;52.526;13.360;2022-12-17T06:24:08;58.15;;;21.70;;
3755;SDS011;1893;52.526;13.360;2022-12-17T06:26:52;56.28;;;19.65;;
3755;SDS011;1893;52.526;13.360;2022-12-17T06:29:36;55.35;;;20.77;;
3755;SDS011;1893;52.526;13.360;2022-12-17T06:32:20;60.47;;;20.42;;
3755;SDS011;1893;52.526;13.360;2022-12-17T06:35:04;47.15;;;18.33;;
3755;SDS011;1893;52.526;13.360;2022-12-17T06:37:59;51.40;;;20.40;;
3755;SDS011;1893;52.526;13.360;2022-12-17T06:40:44;52.67;;;18.35;;
3755;SDS011;1893;52.526;13.360;2022-12-17T06:43:28;50.00;;;19.92;;
3755;SDS011;1893;52.526;13.360;2022-12-17T06:46:12;54.63;;;21.20;;
3755;SDS011;1893;52.526;13.360;2022-12-17T06:48:57;58.35;;;21.38;;
3755;SDS011;1893;52.526;13.360;2022-12-17T06:51:41;50.72;;;18.25;;
3755;SDS011;1893;52.526;13.360;2022-12-17T06:54:24;53.58;;;21.73;;
3755;SDS011;1893;52.526;13.360;2022-12-17T06:57:08;54.50;;;21.55;;
3755;SDS011;1893;52.526;13.360;2022-12-17T06:59:52;56.95;;;21.15;;
3755;SDS011;1893;52.526;13.360;2022-12-17T07:02:36;50.47;;;21.27;;
3755;SDS011;1893;52.526;13.360;2022-12-17T07:05:40;60.80;;;21.80;;
3755;SDS011;1893;52.526;13.360;2022-12-17T07:08:25;65.60;;;24.85;;
3755;SDS011;1893;52.526;13.360;2022-12-17T07:11:09;50.65;;;18.67;;
3755;SDS011;1893;52.526;13.360;2022-12-17T07:13:53;49.05;;;20.25;;
3755;SDS011;1893;52.526;13.360;2022-12-17T07:16:37;59.13;;;22.65;;
3755;SDS011;1893;52.526;13.360;2022-12-17T07:19:21;67.05;;;21.95;;
3755;SDS011;1893;52.526;13.360;2022-12-17T07:22:05;56.90;;;21.38;;
3755;SDS011;1893;52.526;13.360;2022-12-17T07:24:49;53.15;;;20.35;;
3755;SDS011;1893;52.526;13.360;2022-12-17T07:27:33;44.80;;;19.83;;
3755;SDS011;1893;52.526;13.360;2022-12-17T07:30:17;48.33;;;19.80;;
3755;SDS011;1893;52.526;13.360;2022-12-17T07:33:02;47.67;;;19.60;;
3755;SDS011;1893;52.526;13.360;2022-12-17T07:35:53;45.17;;;19.58;;
3755;SDS011;1893;52.526;13.360;2022-12-17T07:38:38;52.53;;;21.85;;
3755;SDS011;1893;52.526;13.360;2022-12-17T07:41:22;55.17;;;19.58;;
3755;SDS011;1893;52.526;13.360;2022-12-17T07:44:06;55.92;;;21.67;;
3755;SDS011;1893;52.526;13.360;2022-12-17T07:46:50;49.78;;;20.85;;
3755;SDS011;1893;52.526;13.360;2022-12-17T07:49:34;53.08;;;19.58;;
3755;SDS011;1893;52.526;13.360;2022-12-17T07:52:18;55.83;;;19.63;;
3755;SDS011;1893;52.526;13.360;2022-12-17T07:55:02;54.83;;;22.45;;
3755;SDS011;1893;52.526;13.360;2022-12-17T07:57:46;52.28;;;19.98;;
3755;SDS011;1893;52.526;13.360;2022-12-17T08:00:30;51.45;;;21.63;;
3755;SDS011;1893;52.526;13.360;2022-12-17T08:03:15;51.10;;;22.20;;
3755;SDS011;1893;52.526;13.360;2022-12-17T08:05:59;54.55;;;21.27;;
3755;SDS011;1893;52.526;13.360;2022-12-17T08:08:43;56.72;;;22.77;;
3755;SDS011;1893;52.526;13.360;2022-12-17T08:11:27;57.08;;;22.75;;
3755;SDS011;1893;52.526;13.360;2022-12-17T08:14:11;56.53;;;20.85;;
3755;SDS011;1893;52.526;13.360;2022-12-17T08:16:55;39.25;;;19.00;;
3755;SDS011;1893;52.526;13.360;2022-12-17T08:19:39;43.70;;;19.98;;
3755;SDS011;1893;52.526;13.360;2022-12-17T08:22:23;54.63;;;20.48;;
3755;SDS011;1893;52.526;13.360;2022-12-17T08:25:21;51.03;;;20.95;;
3755;SDS011;1893;52.526;13.360;2022-12-17T08:28:06;55.03;;;20.45;;
3755;SDS011;1893;52.526;13.360;2022-12-17T08:30:51;56.00;;;20.80;;
3755;SDS011;1893;52.526;13.360;2022-12-17T08:33:35;49.53;;;20.42;;
3755;SDS011;1893;52.526;13.360;2022-12-17T08:36:19;45.10;;;19.95;;
3755;SDS011;1893;52.526;13.360;2022-12-17T08:39:03;50.38;;;20.95;;
3755;SDS011;1893;52.526;13.360;2022-12-17T08:41:47;55.50;;;21.67;;
3755;SDS011;1893;52.526;13.360;2022-12-17T08:44:31;52.83;;;21.85;;
3755;SDS011;1893;52.526;13.360;2022-12-17T08:47:16;42.97;;;21.25;;
3755;SDS011;1893;52.526;13.360;2022-12-17T08:50:00;53.35;;;22.52;;
3755;SDS011;1893;52.526;13.360;2022-12-17T08:52:44;49.10;;;21.90;;
3755;SDS011;1893;52.526;13.360;2022-12-17T08:55:28;64.72;;;25.00;;
3755;SDS011;1893;52.526;13.360;2022-12-17T08:58:12;52.88;;;20.20;;
3755;SDS011;1893;52.526;13.360;2022-12-17T09:00:59;56.80;;;23.13;;
3755;SDS011;1893;52.526;13.360;2022-12-17T09:03:44;60.75;;;25.17;;
3755;SDS011;1893;52.526;13.360;2022-12-17T09:06:29;66.07;;;21.50;;
3755;SDS011;1893;52.526;13.360;2022-12-17T09:09:13;62.42;;;21.55;;
3755;SDS011;1893;52.526;13.360;2022-12-17T09:12:02;59.80;;;24.42;;
3755;SDS011;1893;52.526;13.360;2022-12-17T09:14:46;56.75;;;22.65;;
3755;SDS011;1893;52.526;13.360;2022-12-17T09:17:30;69.90;;;23.92;;
3755;SDS011;1893;52.526;13.360;2022-12-17T09:20:14;58.55;;;23.60;;
3755;SDS011;1893;52.526;13.360;2022-12-17T09:22:58;61.25;;;23.60;;
3755;SDS011;1893;52.526;13.360;2022-12-17T09:25:42;65.18;;;23.55;;
3755;SDS011;1893;52.526;13.360;2022-12-17T09:28:34;62.03;;;24.42;;
3755;SDS011;1893;52.526;13.360;2022-12-17T09:31:18;64.85;;;25.85;;
3755;SDS011;1893;52.526;13.360;2022-12-17T09:34:02;67.03;;;26.42;;
3755;SDS011;1893;52.526;13.360;2022-12-17T09:36:46;63.33;;;26.10;;
3755;SDS011;1893;52.526;13.360;2022-12-17T09:39:30;77.03;;;27.63;;
3755;SDS011;1893;52.526;13.360;2022-12-17T09:42:19;106.05;;;39.08;;
3755;SDS011;1893;52.526;13.360;2022-12-17T09:45:13;62.45;;;26.00;;
3755;SDS011;1893;52.526;13.360;2022-12-17T09:51:22;66.30;;;26.95;;
3755;SDS011;1893;52.526;13.360;2022-12-17T09:54:18;71.95;;;29.15;;
3755;SDS011;1893;52.526;13.360;2022-12-17T09:57:12;72.70;;;27.58;;
3755;SDS011;1893;52.526;13.360;2022-12-17T09:59:59;61.08;;;25.92;;
3755;SDS011;1893;52.526;13.360;2022-12-17T10:02:45;81.75;;;28.67;;
3755;SDS011;1893;52.526;13.360;2022-12-17T10:05:29;69.18;;;24.98;;
3755;SDS011;1893;52.526;13.360;2022-12-17T10:08:16;69.03;;;25.98;;
3755;SDS011;1893;52.526;13.360;2022-12-17T10:11:16;75.32;;;26.83;;
3755;SDS011;1893;52.526;13.360;2022-12-17T10:14:19;60.63;;;24.02;;
3755;SDS011;1893;52.526;13.360;2022-12-17T10:17:26;73.65;;;25.85;;
3755;SDS011;1893;52.526;13.360;2022-12-17T10:23:09;58.95;;;22.77;;
3755;SDS011;1893;52.526;13.360;2022-12-17T10:26:04;66.80;;;24.77;;
3755;SDS011;1893;52.526;13.360;2022-12-17T10:28:49;68.25;;;24.85;;
3755;SDS011;1893;52.526;13.360;2022-12-17T10:31:33;63.40;;;26.70;;
3755;SDS011;1893;52.526;13.360;2022-12-17T10:34:18;67.28;;;25.92;;
3755;SDS011;1893;52.526;13.360;2022-12-17T10:37:03;67.28;;;24.45;;
3755;SDS011;1893;52.526;13.360;2022-12-17T10:39:56;57.45;;;22.55;;
3755;SDS011;1893;52.526;13.360;2022-12-17T10:42:42;80.68;;;27.27;;
3755;SDS011;1893;52.526;13.360;2022-12-17T10:48:17;68.30;;;25.83;;
3755;SDS011;1893;52.526;13.360;2022-12-17T10:51:02;78.75;;;26.52;;
3755;SDS011;1893;52.526;13.360;2022-12-17T10:53:50;73.63;;;28.48;;
3755;SDS011;1893;52.526;13.360;2022-12-17T10:56:35;78.63;;;25.67;;
3755;SDS011;1893;52.526;13.360;2022-12-17T10:59:34;66.03;;;26.52;;
3755;SDS011;1893;52.526;13.360;2022-12-17T11:02:26;69.00;;;26.95;;
3755;SDS011;1893;52.526;13.360;2022-12-17T11:05:15;71.43;;;27.17;;
3755;SDS011;1893;52.526;13.360;2022-12-17T11:08:03;77.78;;;27.02;;
3755;SDS011;1893;52.526;13.360;2022-12-17T11:10:48;67.13;;;27.77;;
3755;SDS011;1893;52.526;13.360;2022-12-17T11:13:34;64.13;;;25.40;;
3755;SDS011;1893;52.526;13.360;2022-12-17T11:16:43;65.95;;;27.58;;
3755;SDS011;1893;52.526;13.360;2022-12-17T11:19:51;67.13;;;27.55;;
3755;SDS011;1893;52.526;13.360;2022-12-17T11:22:50;69.30;;;26.63;;
3755;SDS011;1893;52.526;13.360;2022-12-17T11:25:56;66.57;;;27.30;;
3755;SDS011;1893;52.526;13.360;2022-12-17T11:28:54;84.70;;;29.23;;
3755;SDS011;1893;52.526;13.360;2022-12-17T11:34:59;73.25;;;27.92;;
3755;SDS011;1893;52.526;13.360;2022-12-17T11:50:25;70.35;;;28.95;;
3755;SDS011;1893;52.526;13.360;2022-12-17T11:56:34;74.22;;;28.73;;
3755;SDS011;1893;52.526;13.360;2022-12-17T12:00:12;84.65;;;26.30;;
3755;SDS011;1893;52.526;13.360;2022-12-17T12:02:51;73.53;;;25.63;;
3755;SDS011;1893;52.526;13.360;2022-12-17T12:05:42;90.47;;;28.38;;
3755;SDS011;1893;52.526;13.360;2022-12-17T12:11:59;77.03;;;27.48;;
3755;SDS011;1893;52.526;13.360;2022-12-17T12:18:09;67.05;;;24.25;;
3755;SDS011;1893;52.526;13.360;2022-12-17T12:24:30;65.47;;;25.33;;
3755;SDS011;1893;52.526;13.360;2022-12-17T12:30:22;70.22;;;25.13;;
3755;SDS011;1893;52.526;13.360;2022-12-17T12:36:09;63.50;;;24.45;;
3755;SDS011;1893;52.526;13.360;2022-12-17T12:38:57;69.07;;;24.58;;
3755;SDS011;1893;52.526;13.360;2022-12-17T12:41:47;66.70;;;24.20;;
3755;SDS011;1893;52.526;13.360;2022-12-17T12:51:22;69.78;;;24.90;;
3755;SDS011;1893;52.526;13.360;2022-12-17T12:54:20;70.68;;;23.15;;
3755;SDS011;1893;52.526;13.360;2022-12-17T13:06:03;65.70;;;23.75;;
3755;SDS011;1893;52.526;13.360;2022-12-17T13:08:29;58.27;;;22.23;;
3755;SDS011;1893;52.526;13.360;2022-12-17T13:10:55;70.30;;;24.90;;
3755;SDS011;1893;52.526;13.360;2022-12-17T13:13:28;66.70;;;26.27;;
3755;SDS011;1893;52.526;13.360;2022-12-17T13:16:22;65.97;;;25.02;;
3755;SDS011;1893;52.526;13.360;2022-12-17T13:19:30;62.92;;;25.55;;
3755;SDS011;1893;52.526;13.360;2022-12-17T13:22:10;67.72;;;25.55;;
3755;SDS011;1893;52.526;13.360;2022-12-17T13:24:39;59.45;;;22.83;;
3755;SDS011;1893;52.526;13.360;2022-12-17T13:29:52;73.53;;;27.08;;
3755;SDS011;1893;52.526;13.360;2022-12-17T13:42:43;80.70;;;27.05;;
3755;SDS011;1893;52.526;13.360;2022-12-17T13:45:16;68.68;;;25.83;;
3755;SDS011;1893;52.526;13.360;2022-12-17T13:47:51;81.03;;;28.80;;
3755;SDS011;1893;52.526;13.360;2022-12-17T13:50:22;77.22;;;27.38;;
3755;SDS011;1893;52.526;13.360;2022-12-17T13:52:49;67.60;;;24.45;;
3755;SDS011;1893;52.526;13.360;2022-12-17T13:55:19;66.57;;;25.83;;
3755;SDS011;1893;52.526;13.360;2022-12-17T13:57:49;77.68;;;24.95;;
3755;SDS011;1893;52.526;13.360;2022-12-17T14:00:18;74.80;;;24.95;;
3755;SDS011;1893;52.526;13.360;2022-12-17T14:02:47;75.68;;;25.40;;
3755;SDS011;1893;52.526;13.360;2022-12-17T14:05:24;70.33;;;25.07;;
3755;SDS011;1893;52.526;13.360;2022-12-17T14:07:50;73.95;;;24.88;;
3755;SDS011;1893;52.526;13.360;2022-12-17T14:10:17;68.43;;;28.15;;
3755;SDS011;1893;52.526;13.360;2022-12-17T14:12:44;67.72;;;24.40;;
3755;SDS011;1893;52.526;13.360;2022-12-17T14:15:16;74.97;;;26.17;;
3755;SDS011;1893;52.526;13.360;2022-12-17T14:17:51;66.15;;;26.77;;
3755;SDS011;1893;52.526;13.360;2022-12-17T14:20:19;64.45;;;26.70;;
3755;SDS011;1893;52.526;13.360;2022-12-17T14:22:51;81.47;;;28.05;;
3755;SDS011;1893;52.526;13.360;2022-12-17T14:25:24;80.30;;;27.23;;
3755;SDS011;1893;52.526;13.360;2022-12-17T14:27:59;88.25;;;29.60;;
3755;SDS011;1893;52.526;13.360;2022-12-17T14:30:36;77.80;;;27.67;;
3755;SDS011;1893;52.526;13.360;2022-12-17T14:33:04;78.00;;;28.23;;
3755;SDS011;1893;52.526;13.360;2022-12-17T14:35:53;73.32;;;29.13;;
3755;SDS011;1893;52.526;13.360;2022-12-17T14:38:24;89.93;;;28.55;;
3755;SDS011;1893;52.526;13.360;2022-12-17T14:40:50;72.82;;;29.30;;
3755;SDS011;1893;52.526;13.360;2022-12-17T14:43:16;83.40;;;27.15;;
3755;SDS011;1893;52.526;13.360;2022-12-17T14:45:50;95.07;;;25.90;;
3755;SDS011;1893;52.526;13.360;2022-12-17T14:48:39;72.13;;;27.27;;
3755;SDS011;1893;52.526;13.360;2022-12-17T14:51:28;69.95;;;26.63;;
3755;SDS011;1893;52.526;13.360;2022-12-17T14:54:04;82.25;;;28.00;;
3755;SDS011;1893;52.526;13.360;2022-12-17T14:56:31;88.18;;;26.98;;
3755;SDS011;1893;52.526;13.360;2022-12-17T14:58:56;80.20;;;27.33;;
3755;SDS011;1893;52.526;13.360;2022-12-17T15:01:22;74.30;;;25.40;;
3755;SDS011;1893;52.526;13.360;2022-12-17T15:03:48;67.30;;;23.80;;
3755;SDS011;1893;52.526;13.360;2022-12-17T15:06:17;69.63;;;25.40;;
3755;SDS011;1893;52.526;13.360;2022-12-17T15:08:45;73.50;;;26.17;;
3755;SDS011;1893;52.526;13.360;2022-12-17T15:11:17;75.00;;;25.45;;
3755;SDS011;1893;52.526;13.360;2022-12-17T15:13:44;95.13;;;25.45;;
3755;SDS011;1893;52.526;13.360;2022-12-17T15:16:10;87.40;;;28.20;;
3755;SDS011;1893;52.526;13.360;2022-12-17T15:18:36;87.30;;;29.07;;
3755;SDS011;1893;52.526;13.360;2022-12-17T15:21:01;70.43;;;24.70;;
3755;SDS011;1893;52.526;13.360;2022-12-17T15:23:27;64.38;;;24.67;;
3755;SDS011;1893;52.526;13.360;2022-12-17T15:25:54;77.15;;;27.88;;
3755;SDS011;1893;52.526;13.360;2022-12-17T15:28:21;65.53;;;26.83;;
3755;SDS011;1893;52.526;13.360;2022-12-17T15:30:47;81.80;;;27.13;;
3755;SDS011;1893;52.526;13.360;2022-12-17T15:33:13;73.47;;;26.17;;
3755;SDS011;1893;52.526;13.360;2022-12-17T15:35:39;68.88;;;23.40;;
3755;SDS011;1893;52.526;13.360;2022-12-17T15:38:06;73.72;;;24.98;;
3755;SDS011;1893;52.526;13.360;2022-12-17T15:40:32;76.40;;;24.90;;
3755;SDS011;1893;52.526;13.360;2022-12-17T15:43:00;64.25;;;23.20;;
3755;SDS011;1893;52.526;13.360;2022-12-17T15:45:38;75.90;;;25.92;;
3755;SDS011;1893;52.526;13.360;2022-12-17T15:48:05;57.53;;;21.80;;
3755;SDS011;1893;52.526;13.360;2022-12-17T15:50:31;71.07;;;25.90;;
3755;SDS011;1893;52.526;13.360;2022-12-17T15:52:56;69.90;;;22.33;;
3755;SDS011;1893;52.526;13.360;2022-12-17T15:55:22;68.73;;;21.57;;
3755;SDS011;1893;52.526;13.360;2022-12-17T15:57:48;59.23;;;23.87;;
3755;SDS011;1893;52.526;13.360;2022-12-17T16:00:13;75.77;;;24.00;;
3755;SDS011;1893;52.526;13.360;2022-12-17T16:02:39;61.77;;;23.17;;
3755;SDS011;1893;52.526;13.360;2022-12-17T16:05:05;69.57;;;22.07;;
3755;SDS011;1893;52.526;13.360;2022-12-17T16:07:31;65.85;;;22.88;;
3755;SDS011;1893;52.526;13.360;2022-12-17T16:09:57;70.73;;;21.27;;
3755;SDS011;1893;52.526;13.360;2022-12-17T16:12:23;56.80;;;22.50;;
3755;SDS011;1893;52.526;13.360;2022-12-17T16:14:48;82.87;;;24.57;;
3755;SDS011;1893;52.526;13.360;2022-12-17T16:17:14;72.00;;;24.27;;
3755;SDS011;1893;52.526;13.360;2022-12-17T16:19:39;73.03;;;24.10;;
3755;SDS011;1893;52.526;13.360;2022-12-17T16:22:05;75.07;;;23.50;;
3755;SDS011;1893;52.526;13.360;2022-12-17T16:24:31;81.60;;;25.27;;
3755;SDS011;1893;52.526;13.360;2022-12-17T16:26:56;63.27;;;23.33;;
3755;SDS011;1893;52.526;13.360;2022-12-17T16:29:22;69.07;;;25.00;;
3755;SDS011;1893;52.526;13.360;2022-12-17T16:31:48;73.73;;;21.77;;
3755;SDS011;1893;52.526;13.360;2022-12-17T16:34:14;76.00;;;25.63;;
3755;SDS011;1893;52.526;13.360;2022-12-17T16:36:40;72.53;;;23.63;;
3755;SDS011;1893;52.526;13.360;2022-12-17T16:39:05;66.10;;;23.90;;
3755;SDS011;1893;52.526;13.360;2022-12-17T16:41:31;75.03;;;23.43;;
3755;SDS011;1893;52.526;13.360;2022-12-17T16:43:57;82.20;;;28.00;;
3755;SDS011;1893;52.526;13.360;2022-12-17T16:49:02;57.67;;;22.45;;
3755;SDS011;1893;52.526;13.360;2022-12-17T16:51:29;61.72;;;22.25;;
3755;SDS011;1893;52.526;13.360;2022-12-17T16:53:56;57.53;;;21.00;;
3755;SDS011;1893;52.526;13.360;2022-12-17T16:56:23;73.05;;;23.27;;
3755;SDS011;1893;52.526;13.360;2022-12-17T16:58:51;76.60;;;24.48;;
3755;SDS011;1893;52.526;13.360;2022-12-17T17:01:18;68.75;;;23.33;;
3755;SDS011;1893;52.526;13.360;2022-12-17T17:03:45;75.03;;;27.05;;
3755;SDS011;1893;52.526;13.360;2022-12-17T17:06:11;77.60;;;23.20;;
3755;SDS011;1893;52.526;13.360;2022-12-17T17:08:37;57.30;;;20.63;;
3755;SDS011;1893;52.526;13.360;2022-12-17T17:11:08;72.63;;;22.50;;
3755;SDS011;1893;52.526;13.360;2022-12-17T17:13:35;69.63;;;23.92;;
3755;SDS011;1893;52.526;13.360;2022-12-17T17:16:01;63.17;;;21.80;;
3755;SDS011;1893;52.526;13.360;2022-12-17T17:18:29;81.70;;;25.37;;
3755;SDS011;1893;52.526;13.360;2022-12-17T17:21:10;71.43;;;24.30;;
3755;SDS011;1893;52.526;13.360;2022-12-17T17:24:02;79.95;;;24.58;;